Tiempo atmosférico en la estación meteorológica de Azuaga, Badajoz (550 m.)



Fecha
DESCASC
Temp. máxima en grados centígrados (hora)
DESCASC
Temp. mínima en grados centígrados (hora)
DESCASC
Temp. media en grados centígrados
DESCASC
Racha de viento máxima en m/sg (hora)
DESCASC
Velocidad máxima media en intervalos de 10 minutos(hora)
DESCASC
Precipitaciones diarias en mm
DESCASC
Precipitaciones de 00:00 a 06:00 en mm
DESCASC
Precipitaciones de 06:00 a 12:00 en mm
DESCASC
Precipitaciones de 12:00 a 18:00 en mm
DESCASC
Precipitaciones de 18:00 a 24:00 en mm
DESCASC
17-08-2018 34.5 (17:40) 19.2 (07:40) 26.9 6.39 (12:20) 3.89 (05:50) 0 0 0 0 0
16-08-2018 32.7 (19:00) 18 (07:20) 25.4 7.5 (21:20) 5.28 (20:20) 0.6 0 0 0 0.6
15-08-2018 33.1 (17:20) 19 (06:30) 26 7.78 (18:30) 4.72 (12:50) 0 0 0 0 0
14-08-2018 34.4 (18:40) 16 (06:50) 25.2 7.78 (16:10) 4.17 (01:00) 0 0 0 0 0
13-08-2018 33.3 (17:10) 16.4 (08:10) 24.8 9.72 (16:10) 5.56 (19:40) 0 0 0 0 0
12-08-2018 35.2 (16:20) 21.4 (00:00) 28.3 9.72 (18:40) 6.11 (20:40) 0 0 0 0 0
11-08-2018 35.7 (18:10) 19 (00:00) 27.4 9.44 (14:50) 4.17 (12:10) 0 0 0 0 0
10-08-2018 34.6 (19:00) 15.3 (00:00) 24.9 7.5 (15:40) 4.17 (16:30) 0 0 0 0 0
09-08-2018 29.3 (19:10) 13.8 (00:00) 21.5 9.72 (02:20) 6.39 (02:20) 0 0 0 0 0
08-08-2018 33.9 (17:00) 16.9 (00:00) 25.4 13.89 (17:20) 6.94 (15:10) 0 0 0 0 0
07-08-2018 35.3 (17:00) 20.9 (00:00) 28.1 11.11 (19:00) 7.22 (18:40) 0 0 0 0 0
06-08-2018 40.6 (17:10) 23.2 (00:00) 31.9 18.33 (20:20) 8.61 (20:40) 0.2 0 0 0 0.2
05-08-2018 39.8 (17:10) 23.3 (00:00) 31.5 11.39 (15:50) 6.11 (16:00) 0 0 0 0 0
04-08-2018 40.7 (17:30) 26.5 (07:00) 33.6 13.33 (18:50) 5.56 (17:20) 0 0 0 0 0
03-08-2018 41.1 (16:40) 25.2 (00:00) 33.1 9.17 (16:40) 5.28 (18:50) 0 0 0 0 0
02-08-2018 40 (18:10) 23.9 (00:00) 31.9 7.78 (14:50) 3.61 (12:50) 0 0 0 0 0
01-08-2018 39.1 (17:30) 18.8 (07:50) 28.9 7.5 (16:50) 4.72 (18:40) 0 0 0 0 0
31-07-2018 35 (18:10) 15.9 (00:00) 25.4 7.78 (02:20) 5.28 (01:10) 0 0 0 0 0
30-07-2018 33 (17:50) 13.5 (00:00) 23.3 9.44 (15:50) 5 (19:10) 0 0 0 0 0
29-07-2018 31.5 (18:00) 15.2 (00:00) 23.3 9.17 (16:50) 5.56 (21:10) 0 0 0 0 0
28-07-2018 33.6 (17:10) 14.2 (00:00) 23.9 9.17 (20:10) 5.83 (01:30) 0 0 0 0 0
27-07-2018 33.8 (16:10) 16.9 (00:00) 25.3 10 (18:10) 6.39 (19:30) 0 0 0 0 0
26-07-2018 34.1 (18:30) 15.3 (00:00) 24.7 8.61 (20:30) 5.83 (20:40) 0 0 0 0 0
25-07-2018 34 (17:30) 15.3 (00:00) 24.7 7.5 (18:50) 4.44 (21:00) 0 0 0 0 0
24-07-2018 33.7 (16:50) 15.5 (00:00) 24.6 8.89 (19:10) 5 (19:10) 0 0 0 0 0
23-07-2018 33.8 (17:20) 19.3 (00:00) 26.5 10.83 (18:40) 5.28 (20:10) 0 0 0 0 0
22-07-2018 34.3 (17:20) 15.6 (00:00) 24.9 9.17 (19:20) 4.72 (19:20) 0 0 0 0 0
21-07-2018 32.8 (18:20) 14.3 (00:00) 23.5 8.33 (01:30) 5.56 (01:30) 0 0 0 0 0
20-07-2018 31.2 (17:10) 14.2 (00:00) 22.7 12.22 (17:10) 6.67 (18:00) 0 0 0 0 0

Gráficas

Temp. máximas Temp. mínimas Temp. medias Precipitaciones Rachas de viento máximas Velocidades máximas media en intervalos de 10 minutos

Datos horarios

Fecha y hora oficial Temperatura (ºC) Velocidad del viento (km/h) Dirección del viento Racha (km/h) Dirección de racha Precipitación (mm) Presión (hPa) Tendencia (hPa) Humedad (%)
2018-08-18 23:00:00 29.2 0 Calma 8 Sudeste 0 -- -- 31
2018-08-18 22:00:00 30.5 4 Sudeste 8 Este 0 -- -- 29
2018-08-18 21:00:00 32.2 3 Este 6 Este 0 -- -- 26
2018-08-18 20:00:00 33.5 0 Calma 9 Este 0 -- -- 25
2018-08-18 19:00:00 32.9 5 Nordeste 10 Nordeste 0 -- -- 26
2018-08-18 18:00:00 33.5 5 Nordeste 19 Este 0 -- -- 26
2018-08-18 17:00:00 33.8 9 Este 34 Nordeste 0 -- -- 26
2018-08-18 16:00:00 34.2 8 Noroeste 20 Sudeste 0 -- -- 26
2018-08-18 15:00:00 33 6 Este 17 Sudeste 0 -- -- 29
2018-08-18 14:00:00 32 10 Sudeste 21 Sur 0 -- -- 32
2018-08-18 13:00:00 30.7 11 Sudeste 22 Sudeste 0 -- -- 33
2018-08-18 12:00:00 28.7 10 Sudeste 21 Sudeste 0 -- -- 39
2018-08-18 11:00:00 26.3 10 Sudeste 17 Sudeste 0 -- -- 46
2018-08-18 10:00:00 23.8 8 Sudeste 17 Sudeste 0 -- -- 51
2018-08-18 09:00:00 21.8 10 Sudeste 14 Sudeste 0 -- -- 51
2018-08-18 08:00:00 21.2 5 Sur 7 Sudoeste 0 -- -- 48
2018-08-18 07:00:00 21.1 5 Oeste 8 Oeste 0 -- -- 48
2018-08-18 06:00:00 21.3 6 Oeste 8 Oeste 0 -- -- 47
2018-08-18 05:00:00 21.9 2 Oeste 9 Noroeste 0 -- -- 45
2018-08-18 04:00:00 22.5 6 Oeste 9 Oeste 0 -- -- 43
2018-08-18 03:00:00 23.5 3 Oeste 12 Oeste 0 -- -- 41
2018-08-18 02:00:00 23.3 6 Oeste 11 Oeste 0 -- -- 41
2018-08-18 01:00:00 23.5 8 Noroeste 13 Noroeste 0 -- -- 43
2018-08-18 00:00:00 24.5 8 Noroeste 12 Oeste 0 -- -- 42
2018-08-17 23:00:00 26.1 6 Noroeste 13 Noroeste 0 -- -- 43
2018-08-17 22:00:00 27.9 7 Norte 20 Noroeste 0 -- -- 39
2018-08-17 21:00:00 29.9 13 Norte 21 Norte 0 -- -- 36
2018-08-17 20:00:00 30.9 6 Nordeste 23 Nordeste 0 -- -- 33
2018-08-17 19:00:00 32.1 10 Nordeste 22 Nordeste 0 -- -- 31
2018-08-17 18:00:00 33.2 11 Norte 20 Noroeste 0 -- -- 28
2018-08-17 17:00:00 34 8 Oeste 21 Noroeste 0 -- -- 27
2018-08-17 16:00:00 32.5 8 Sudoeste 20 Nordeste 0 -- -- 30
2018-08-17 15:00:00 32 8 Sudeste 18 Norte 0 -- -- 32
2018-08-17 14:00:00 30.7 6 Norte 22 Norte 0 -- -- 36
2018-08-17 13:00:00 29.6 8 Norte 23 Sur 0 -- -- 40
2018-08-17 12:00:00 28.3 4 Sur 10 Sudoeste 0 -- -- 45
2018-08-17 11:00:00 25.4 5 Sudeste 15 Este 0 -- -- 52
2018-08-17 10:00:00 22.7 8 Sudeste 17 Sudeste 0 -- -- 62
2018-08-17 09:00:00 21.7 7 Sudeste 12 Sudeste 0 -- -- 64
2018-08-17 08:00:00 19.3 4 Sudeste 14 Este 0 -- -- 72
2018-08-17 07:00:00 19.6 6 Oeste 14 Oeste 0 -- -- 70
2018-08-17 06:00:00 20.8 12 Sudoeste 16 Sudoeste 0 -- -- 66
2018-08-17 05:00:00 21 8 Sudoeste 10 Sur 0 -- -- 67
2018-08-17 04:00:00 22.2 3 Sudeste 10 Este 0 -- -- 60
2018-08-17 03:00:00 21.9 6 Este 14 Este 0 -- -- 62
2018-08-17 02:00:00 22.5 6 Sur 10 Sur 0 -- -- 61
2018-08-17 01:00:00 23.3 9 Sur 14 Sur 0 -- -- 57
2018-08-17 00:00:00 24.1 7 Sudeste 14 Sudeste 0 -- -- 52
2018-08-16 23:00:00 24.5 13 Sudoeste 21 Sudoeste 0 -- -- 55
2018-08-16 22:00:00 25.2 10 Sudoeste 27 Sudoeste 0.6 -- -- 56
2018-08-16 21:00:00 28.8 15 Sudoeste 26 Sudoeste 0 -- -- 38
2018-08-16 20:00:00 31.4 16 Sudoeste 26 Sudoeste 0 -- -- 29
2018-08-16 19:00:00 32.7 6 Sudoeste 24 Noroeste 0 -- -- 23
2018-08-16 18:00:00 32.4 13 Sudoeste 24 Oeste 0 -- -- 27
2018-08-16 17:00:00 31.9 9 Noroeste 22 Sudoeste 0 -- -- 29
2018-08-16 16:00:00 30.7 6 Sudoeste 26 Norte 0 -- -- 33
2018-08-16 15:00:00 30.3 6 Sudoeste 24 Sur 0 -- -- 34
2018-08-16 14:00:00 29 9 Sudoeste 21 Sur 0 -- -- 42
2018-08-16 13:00:00 28 11 Sur 22 Sur 0 -- -- 43
2018-08-16 12:00:00 26.3 12 Sur 21 Sudeste 0 -- -- 44
2018-08-16 11:00:00 24.1 12 Sur 21 Sur 0 -- -- 48
2018-08-16 10:00:00 20.9 12 Sudeste 17 Sudeste 0 -- -- 54
2018-08-16 09:00:00 20.2 9 Sudeste 13 Sudeste 0 -- -- 53
2018-08-16 08:00:00 18.8 9 Sudeste 11 Sudeste 0 -- -- 56
2018-08-16 07:00:00 18.3 2 Nordeste 9 Sur 0 -- -- 52
2018-08-16 06:00:00 19.7 8 Sur 10 Sur 0 -- -- 50
2018-08-16 05:00:00 19.6 6 Sudoeste 8 Sudoeste 0 -- -- 50
2018-08-16 04:00:00 19.9 3 Oeste 7 Oeste 0 -- -- 43
2018-08-16 03:00:00 19.7 3 Oeste 16 Noroeste 0 -- -- 44
2018-08-16 02:00:00 21.8 10 Sur 14 Sur 0 -- -- 41
2018-08-16 01:00:00 22.5 9 Sudoeste 14 Sudoeste 0 -- -- 39
2018-08-16 00:00:00 23.2 9 Sudoeste 15 Sudoeste 0 -- -- 38
2018-08-15 23:00:00 24.8 10 Sudoeste 18 Sur 0 -- -- 34
2018-08-15 22:00:00 26.3 10 Sur 19 Sur 0 -- -- 35
2018-08-15 21:00:00 28.9 13 Sur 25 Sudoeste 0 -- -- 30
2018-08-15 20:00:00 30.9 13 Sur 22 Sur 0 -- -- 26
2018-08-15 19:00:00 31.9 13 Sudoeste 28 Sudoeste 0 -- -- 21
2018-08-15 18:00:00 32.3 12 Sudoeste 27 Sur 0 -- -- 19
2018-08-15 17:00:00 32.6 13 Sur 25 Sudeste 0 -- -- 20
2018-08-15 16:00:00 32.1 12 Sur 26 Sudeste 0 -- -- 23
2018-08-15 15:00:00 31.8 13 Sur 27 Sudeste 0 -- -- 23
2018-08-15 14:00:00 31.5 13 Sur 24 Sur 0 -- -- 18
2018-08-15 13:00:00 30.7 14 Sur 28 Sur 0 -- -- 19
2018-08-15 12:00:00 29.5 8 Sudeste 18 Sudeste 0 -- -- 21
2018-08-15 11:00:00 26.3 7 Sudeste 14 Sudeste 0 -- -- 30
2018-08-15 10:00:00 22.5 10 Sudeste 17 Sudeste 0 -- -- 41
2018-08-15 09:00:00 20.9 9 Sudeste 14 Sudeste 0 -- -- 45
2018-08-15 08:00:00 20 5 Sudeste 13 Sur 0 -- -- 47
2018-08-15 07:00:00 19.5 10 Sur 13 Sur 0 -- -- 54
2018-08-15 06:00:00 20.1 7 Sudoeste 12 Oeste 0 -- -- 55
2018-08-15 05:00:00 20.2 9 Oeste 11 Oeste 0 -- -- 50
2018-08-15 04:00:00 21.4 7 Oeste 10 Oeste 0 -- -- 43
2018-08-15 03:00:00 23 5 Sudoeste 18 Sudoeste 0 -- -- 34
2018-08-15 02:00:00 23.4 10 Sudoeste 15 Sudoeste 0 -- -- 35
2018-08-15 01:00:00 23.9 10 Oeste 19 Sudoeste 0 -- -- 33
2018-08-15 00:00:00 25.6 14 Sudoeste 19 Sudoeste 0 -- -- 31
2018-08-14 23:00:00 27.3 13 Sudoeste 20 Sudoeste 0 -- -- 31
2018-08-14 22:00:00 28.9 11 Sudoeste 18 Sudoeste 0 -- -- 26
2018-08-14 21:00:00 31.7 13 Sudoeste 21 Sudoeste 0 -- -- 22
2018-08-14 20:00:00 33.7 12 Sudoeste 22 Sudoeste 0 -- -- 20
2018-08-14 19:00:00 34.2 8 Sur 19 Oeste 0 -- -- 20
2018-08-14 18:00:00 33.9 10 Oeste 21 Oeste 0 -- -- 18
2018-08-14 17:00:00 33.9 10 Sur 28 Sudoeste 0 -- -- 20
2018-08-14 16:00:00 33.2 10 Oeste 26 Sudoeste 0 -- -- 21
2018-08-14 15:00:00 32.7 12 Oeste 22 Oeste 0 -- -- 23
2018-08-14 14:00:00 31.7 10 Sudoeste 21 Oeste 0 -- -- 24
2018-08-14 13:00:00 30.5 14 Sudoeste 21 Sudoeste 0 -- -- 26
2018-08-14 12:00:00 28.8 4 Sur 14 Sudoeste 0 -- -- 31
2018-08-14 11:00:00 26.2 4 Sudeste 8 Sudeste 0 -- -- 37
2018-08-14 10:00:00 23 2 Norte 6 Noroeste 0 -- -- 47
2018-08-14 09:00:00 20.6 2 Este 6 Este 0 -- -- 52
2018-08-14 08:00:00 16.9 3 Oeste 7 Noroeste 0 -- -- 63
2018-08-14 07:00:00 16.2 5 Oeste 8 Noroeste 0 -- -- 63
2018-08-14 06:00:00 16.9 6 Oeste 8 Oeste 0 -- -- 59
2018-08-14 05:00:00 17.6 5 Oeste 8 Noroeste 0 -- -- 56
2018-08-14 04:00:00 18.8 5 Oeste 19 Noroeste 0 -- -- 52
2018-08-14 03:00:00 19.4 13 Noroeste 20 Noroeste 0 -- -- 49
2018-08-14 02:00:00 20.4 10 Noroeste 18 Noroeste 0 -- -- 44
2018-08-14 01:00:00 22.1 15 Noroeste 22 Noroeste 0 -- -- 39
2018-08-14 00:00:00 23.3 13 Noroeste 23 Noroeste 0 -- -- 33
2018-08-13 23:00:00 24.3 12 Oeste 16 Noroeste 0 -- -- 32
2018-08-13 22:00:00 26.3 10 Noroeste 24 Noroeste 0 -- -- 28
2018-08-13 21:00:00 29.9 16 Noroeste 27 Noroeste 0 -- -- 23
2018-08-13 20:00:00 31.7 17 Noroeste 33 Noroeste 0 -- -- 19
2018-08-13 19:00:00 32.4 14 Noroeste 30 Oeste 0 -- -- 24
2018-08-13 18:00:00 33.1 18 Oeste 31 Oeste 0 -- -- 22
2018-08-13 17:00:00 33 16 Oeste 35 Noroeste 0 -- -- 24
2018-08-13 16:00:00 32.1 18 Noroeste 32 Noroeste 0 -- -- 25
2018-08-13 15:00:00 31 17 Oeste 33 Noroeste 0 -- -- 29
2018-08-13 14:00:00 29.8 17 Oeste 28 Oeste 0 -- -- 31
2018-08-13 13:00:00 27.9 12 Oeste 24 Oeste 0 -- -- 38
2018-08-13 12:00:00 25.6 12 Oeste 21 Noroeste 0 -- -- 46
2018-08-13 11:00:00 22.5 12 Noroeste 19 Noroeste 0 -- -- 56
2018-08-13 10:00:00 20.1 13 Oeste 24 Noroeste 0 -- -- 63
2018-08-13 09:00:00 17.8 14 Noroeste 19 Noroeste 0 -- -- 70
2018-08-13 08:00:00 16.5 6 Oeste 10 Noroeste 0 -- -- 68
2018-08-13 07:00:00 16.8 6 Noroeste 10 Noroeste 0 -- -- 65
2018-08-13 06:00:00 17.5 6 Noroeste 10 Oeste 0 -- -- 62
2018-08-13 05:00:00 19.7 5 Oeste 10 Oeste 0 -- -- 57
2018-08-13 04:00:00 20.6 8 Oeste 15 Oeste 0 -- -- 57
2018-08-13 03:00:00 21.1 11 Oeste 17 Oeste 0 -- -- 55
2018-08-13 02:00:00 22.5 10 Oeste 20 Noroeste 0 -- -- 49
2018-08-13 01:00:00 22.7 8 Noroeste 15 Noroeste 0 -- -- 46
2018-08-13 00:00:00 24.4 6 Noroeste 15 Noroeste 0 -- -- 39
2018-08-12 23:00:00 26.7 10 Noroeste 15 Noroeste 0 -- -- 36
2018-08-12 22:00:00 28.7 10 Noroeste 26 Oeste 0 -- -- 31
2018-08-12 21:00:00 31.9 17 Oeste 33 Noroeste 0 -- -- 25
2018-08-12 20:00:00 33.9 17 Sudoeste 28 Oeste 0 -- -- 25
2018-08-12 19:00:00 34.8 13 Sudoeste 35 Sudoeste 0 -- -- 25
2018-08-12 18:00:00 34.9 18 Oeste 28 Oeste 0 -- -- 26
2018-08-12 17:00:00 33.8 6 Sudoeste 28 Sudoeste 0 -- -- 28
2018-08-12 16:00:00 34.1 6 Sudoeste 29 Oeste 0 -- -- 30
2018-08-12 15:00:00 33.1 13 Sur 22 Sudoeste 0 -- -- 33
2018-08-12 14:00:00 31.9 10 Sudoeste 24 Sudoeste 0 -- -- 37
2018-08-12 13:00:00 31.4 9 Sur 25 Sudoeste 0 -- -- 38
2018-08-12 12:00:00 30.6 12 Sur 26 Sur 0 -- -- 36
2018-08-12 11:00:00 28.7 12 Sur 23 Sudeste 0 -- -- 38
2018-08-12 10:00:00 26 15 Sudeste 21 Sudeste 0 -- -- 45
2018-08-12 09:00:00 23.4 9 Sudeste 15 Sudeste 0 -- -- 65
2018-08-12 08:00:00 22.1 6 Sudeste 10 Este 0 -- -- 69
2018-08-12 07:00:00 21.9 3 Este 12 Sur 0 -- -- 61
2018-08-12 06:00:00 23 9 Sur 14 Sudeste 0 -- -- 63
2018-08-12 05:00:00 23.1 4 Sudoeste 8 Sudoeste 0 -- -- 43
2018-08-12 04:00:00 24.6 8 Sudoeste 13 Sur 0 -- -- 40
2018-08-12 03:00:00 25.1 5 Oeste 16 Sudeste 0 -- -- 53
2018-08-12 02:00:00 26.6 12 Sudeste 19 Sudeste 0 -- -- 49
2018-08-12 01:00:00 27 3 Sudoeste 14 Noroeste 0 -- -- 45
2018-08-12 00:00:00 28.6 7 Sur 13 Sudeste 0 -- -- 42
2018-08-11 23:00:00 29.5 8 Sudoeste 12 Sudoeste 0 -- -- 40
2018-08-11 22:00:00 30.6 6 Sur 16 Sur 0 -- -- 38
2018-08-11 21:00:00 32.6 10 Sur 19 Sur 0 -- -- 34
2018-08-11 20:00:00 34.5 8 Sur 19 Sur 0 -- -- 27
2018-08-11 19:00:00 34.6 12 Sudoeste 24 Sudoeste 0 -- -- 28
2018-08-11 18:00:00 35.5 10 Sur 20 Sudeste 0 -- -- 27
2018-08-11 17:00:00 34.9 7 Sur 25 Sudeste 0 -- -- 27
2018-08-11 16:00:00 34.4 10 Sudeste 22 Este 0 -- -- 29
2018-08-11 15:00:00 33.6 13 Sudeste 34 Sudeste 0 -- -- 31
2018-08-11 14:00:00 32.6 9 Sudeste 26 Este 0 -- -- 33
2018-08-11 13:00:00 31.2 11 Sudeste 27 Sudeste 0 -- -- 35
2018-08-11 12:00:00 29.9 13 Sudeste 24 Sudeste 0 -- -- 37
2018-08-11 11:00:00 28.1 10 Sudeste 20 Sur 0 -- -- 37
2018-08-11 10:00:00 26.7 9 Sudeste 15 Sudeste 0 -- -- 37
2018-08-11 09:00:00 23.3 4 Este 8 Este 0 -- -- 42
2018-08-11 08:00:00 21 4 Sudeste 10 Sudeste 0 -- -- 41
2018-08-11 07:00:00 21 5 Este 9 Sudeste 0 -- -- 40
2018-08-11 06:00:00 19.5 0 Calma 8 Sudeste 0 -- -- 40
2018-08-11 05:00:00 20.3 3 Sur 14 Oeste 0 -- -- 41
2018-08-11 04:00:00 22.9 9 Sudeste 14 Sudeste 0 -- -- 34
2018-08-11 03:00:00 21.3 3 Este 7 Sudeste 0 -- -- 30
2018-08-11 02:00:00 23.1 5 Sudoeste 10 Oeste 0 -- -- 26
2018-08-11 01:00:00 23.7 3 Noroeste 9 Oeste 0 -- -- 26
2018-08-11 00:00:00 24.6 2 Norte 9 Oeste 0 -- -- 26
2018-08-10 23:00:00 25.8 3 Noroeste 8 Oeste 0 -- -- 26
2018-08-10 22:00:00 28 10 Norte 17 Oeste 0 -- -- 25
2018-08-10 21:00:00 32.4 8 Sudoeste 15 Sudoeste 0 -- -- 18
2018-08-10 20:00:00 34 8 Oeste 18 Sudoeste 0 -- -- 17
2018-08-10 19:00:00 34.6 9 Sudoeste 19 Noroeste 0 -- -- 17
2018-08-10 18:00:00 34.3 9 Oeste 21 Oeste 0 -- -- 17
2018-08-10 17:00:00 33.8 8 Noroeste 24 Oeste 0 -- -- 17
2018-08-10 16:00:00 33.1 7 Sur 27 Sudoeste 0 -- -- 18
2018-08-10 15:00:00 32.3 13 Sudoeste 24 Sudoeste 0 -- -- 18
2018-08-10 14:00:00 30.6 5 Sudeste 16 Norte 0 -- -- 22
2018-08-10 13:00:00 29.8 5 Norte 13 Norte 0 -- -- 21
2018-08-10 12:00:00 28 5 Nordeste 13 Nordeste 0 -- -- 23
2018-08-10 11:00:00 24.8 5 Norte 11 Norte 0 -- -- 33
2018-08-10 10:00:00 21.1 6 Norte 12 Noroeste 0 -- -- 44
2018-08-10 09:00:00 17.8 6 Noroeste 10 Oeste 0 -- -- 55
2018-08-10 08:00:00 15.4 6 Oeste 14 Oeste 0 -- -- 62
2018-08-10 07:00:00 15.3 8 Oeste 15 Noroeste 0 -- -- 63
2018-08-10 06:00:00 15.8 10 Noroeste 17 Noroeste 0 -- -- 60
2018-08-10 05:00:00 16.4 10 Oeste 15 Noroeste 0 -- -- 58
2018-08-10 04:00:00 16.6 8 Oeste 16 Oeste 0 -- -- 56
2018-08-10 03:00:00 17.7 8 Oeste 17 Oeste 0 -- -- 48
2018-08-10 02:00:00 19.2 11 Oeste 18 Oeste 0 -- -- 30
2018-08-10 01:00:00 19.6 7 Oeste 12 Oeste 0 -- -- 29
2018-08-10 00:00:00 20.7 5 Noroeste 10 Oeste 0 -- -- 29
2018-08-09 23:00:00 21.7 6 Oeste 13 Oeste 0 -- -- 28
2018-08-09 22:00:00 23.5 8 Oeste 13 Noroeste 0 -- -- 26
2018-08-09 21:00:00 27.4 11 Noroeste 19 Noroeste 0 -- -- 22
2018-08-09 20:00:00 28.7 9 Noroeste 25 Noroeste 0 -- -- 21
2018-08-09 19:00:00 29.2 12 Noroeste 27 Noroeste 0 -- -- 24
2018-08-09 18:00:00 29.2 13 Noroeste 33 Noroeste 0 -- -- 23
2018-08-09 17:00:00 28.4 14 Norte 32 Noroeste 0 -- -- 27
2018-08-09 16:00:00 28.4 14 Oeste 30 Noroeste 0 -- -- 27
2018-08-09 15:00:00 27.2 14 Oeste 32 Noroeste 0 -- -- 32
2018-08-09 14:00:00 25.6 13 Noroeste 29 Noroeste 0 -- -- 39
2018-08-09 13:00:00 24.4 15 Noroeste 27 Noroeste 0 -- -- 44
2018-08-09 12:00:00 22.1 10 Noroeste 26 Noroeste 0 -- -- 54
2018-08-09 11:00:00 20.1 17 Noroeste 24 Noroeste 0 -- -- 63
2018-08-09 10:00:00 18.2 15 Noroeste 23 Noroeste 0 -- -- 72
2018-08-09 09:00:00 15.9 14 Noroeste 22 Noroeste 0 -- -- 83
2018-08-09 08:00:00 13.9 10 Oeste 17 Noroeste 0 -- -- 88
2018-08-09 07:00:00 14.4 10 Noroeste 21 Noroeste 0 -- -- 86
2018-08-09 06:00:00 15 14 Noroeste 24 Noroeste 0 -- -- 82
2018-08-09 05:00:00 16.2 15 Noroeste 29 Noroeste 0 -- -- 77
2018-08-09 04:00:00 17.2 20 Noroeste 30 Noroeste 0 -- -- 71
2018-08-09 03:00:00 18.2 17 Noroeste 35 Noroeste 0 -- -- 64
2018-08-09 02:00:00 19.4 22 Noroeste 34 Noroeste 0 -- -- 59
2018-08-09 01:00:00 20.3 15 Noroeste 25 Noroeste 0 -- -- 47
2018-08-09 00:00:00 22 11 Oeste 25 Noroeste 0 -- -- 37
2018-08-08 23:00:00 24 18 Noroeste 38 Noroeste 0 -- -- 31
2018-08-08 22:00:00 26.2 22 Noroeste 33 Noroeste 0 -- -- 28
2018-08-08 21:00:00 29.2 19 Oeste 38 Oeste 0 -- -- 24
2018-08-08 20:00:00 31.3 25 Noroeste 40 Noroeste 0 -- -- 24
2018-08-08 19:00:00 33.4 17 Sudoeste 37 Sur 0 -- -- 16
2018-08-08 18:00:00 33.5 19 Sudoeste 50 Sur 0 -- -- 16
2018-08-08 17:00:00 33.9 21 Sudoeste 38 Sudoeste 0 -- -- 16
2018-08-08 16:00:00 33.2 20 Sudoeste 41 Sudoeste 0 -- -- 20
2018-08-08 15:00:00 32.5 23 Sudoeste 37 Sudoeste 0 -- -- 22
2018-08-08 14:00:00 31.5 19 Sudoeste 32 Sudoeste 0 -- -- 26
2018-08-08 13:00:00 30.4 15 Sudoeste 28 Sudoeste 0 -- -- 26
2018-08-08 12:00:00 26.9 10 Sur 16 Sur 0 -- -- 40
2018-08-08 11:00:00 23.8 3 Sudoeste 11 Oeste 0 -- -- 48
2018-08-08 10:00:00 20.4 7 Oeste 12 Noroeste 0 -- -- 58
2018-08-08 09:00:00 18.2 8 Oeste 13 Noroeste 0 -- -- 65
2018-08-08 08:00:00 16.9 8 Oeste 15 Noroeste 0 -- -- 69
2018-08-08 07:00:00 17.4 8 Oeste 15 Oeste 0 -- -- 66
2018-08-08 06:00:00 17.9 10 Oeste 16 Oeste 0 -- -- 63
2018-08-08 05:00:00 18.7 9 Noroeste 18 Noroeste 0 -- -- 60
2018-08-08 04:00:00 19.4 9 Oeste 14 Noroeste 0 -- -- 55
2018-08-08 03:00:00 21 9 Oeste 15 Oeste 0 -- -- 51
2018-08-08 02:00:00 21.9 10 Noroeste 20 Noroeste 0 -- -- 47
2018-08-08 01:00:00 23.4 13 Noroeste 23 Noroeste 0 -- -- 44
2018-08-08 00:00:00 24.3 11 Noroeste 18 Noroeste 0 -- -- 33
2018-08-07 23:00:00 26.1 6 Noroeste 14 Noroeste 0 -- -- 25
2018-08-07 22:00:00 28.1 12 Noroeste 21 Noroeste 0 -- -- 23
2018-08-07 21:00:00 30.7 18 Noroeste 32 Oeste 0 -- -- 20
2018-08-07 20:00:00 32.5 21 Noroeste 36 Noroeste 0 -- -- 18
2018-08-07 19:00:00 33.7 26 Noroeste 40 Noroeste 0 -- -- 17
2018-08-07 18:00:00 34.6 19 Noroeste 37 Noroeste 0 -- -- 18
2018-08-07 17:00:00 35.3 23 Noroeste 36 Noroeste 0 -- -- 18
2018-08-07 16:00:00 34.6 19 Noroeste 37 Noroeste 0 -- -- 19
2018-08-07 15:00:00 34.9 17 Noroeste 30 Noroeste 0 -- -- 18
2018-08-07 14:00:00 34.2 9 Noroeste 26 Oeste 0 -- -- 19
2018-08-07 13:00:00 32.2 11 Noroeste 18 Noroeste 0 -- -- 23
2018-08-07 12:00:00 29.4 9 Noroeste 22 Noroeste 0 -- -- 28
2018-08-07 11:00:00 27.6 12 Noroeste 19 Noroeste 0 -- -- 30
2018-08-07 10:00:00 24.5 6 Noroeste 13 Oeste 0 -- -- 42
2018-08-07 09:00:00 21.6 0 Calma 6 Noroeste 0 -- -- 48
2018-08-07 08:00:00 21 0 Calma 13 Este 0 -- -- 47
2018-08-07 07:00:00 22.1 9 Oeste 15 Oeste 0 -- -- 47
2018-08-07 06:00:00 22.7 7 Oeste 20 Oeste 0 -- -- 43
2018-08-07 05:00:00 24.1 12 Oeste 19 Noroeste 0 -- -- 43
2018-08-07 04:00:00 24.9 9 Noroeste 16 Noroeste 0 -- -- 43
2018-08-07 03:00:00 25.8 11 Noroeste 19 Noroeste 0 -- -- 39
2018-08-07 02:00:00 27.6 14 Noroeste 23 Noroeste 0 -- -- 35
2018-08-07 01:00:00 28.2 15 Oeste 25 Noroeste 0 -- -- 32
2018-08-07 00:00:00 30.6 18 Noroeste 30 Noroeste 0 -- -- 27
2018-08-06 23:00:00 31.8 18 Oeste 29 Oeste 0 -- -- 26
2018-08-06 22:00:00 33.3 17 Oeste 24 Oeste 0 -- -- 21
2018-08-06 21:00:00 34.1 18 Sudoeste 66 Noroeste 0.2 -- -- 19
2018-08-06 20:00:00 37.9 18 Oeste 39 Oeste 0 -- -- 12
2018-08-06 19:00:00 39.1 8 Nordeste 25 Norte 0 -- -- 13
2018-08-06 18:00:00 40.2 9 Noroeste 22 Noroeste 0 -- -- 13
2018-08-06 17:00:00 40.3 9 Noroeste 18 Oeste 0 -- -- 13
2018-08-06 16:00:00 39.5 7 Norte 23 Norte 0 -- -- 13
2018-08-06 15:00:00 38.8 6 Sudeste 19 Nordeste 0 -- -- 14
2018-08-06 14:00:00 37.3 5 Norte 14 Sudeste 0 -- -- 14
2018-08-06 13:00:00 35.6 5 Este 11 Nordeste 0 -- -- 19
2018-08-06 12:00:00 32.8 5 Sudeste 12 Este 0 -- -- 23
2018-08-06 11:00:00 30.4 5 Sudeste 9 Este 0 -- -- 30
2018-08-06 10:00:00 27.7 6 Sudeste 9 Este 0 -- -- 36
2018-08-06 09:00:00 25 4 Este 14 Sudeste 0 -- -- 42
2018-08-06 08:00:00 23.2 4 Sudeste 14 Sudeste 0 -- -- 45
2018-08-06 07:00:00 24.2 10 Sudeste 15 Sudeste 0 -- -- 43
2018-08-06 06:00:00 24.5 9 Sudeste 16 Sudeste 0 -- -- 40
2018-08-06 05:00:00 25.8 10 Sudeste 15 Sudeste 0 -- -- 39
2018-08-06 04:00:00 26.7 6 Sudeste 14 Sudeste 0 -- -- 33
2018-08-06 03:00:00 27.9 6 Este 12 Sudeste 0 -- -- 22
2018-08-06 02:00:00 27.1 6 Noroeste 11 Noroeste 0 -- -- 23
2018-08-06 01:00:00 28.3 6 Noroeste 12 Noroeste 0 -- -- 21
2018-08-06 00:00:00 29.2 6 Noroeste 11 Noroeste 0 -- -- 18
2018-08-05 23:00:00 30.7 6 Noroeste 10 Noroeste 0 -- -- 17
2018-08-05 22:00:00 32.4 4 Noroeste 14 Norte 0 -- -- 15
2018-08-05 21:00:00 36.4 10 Norte 28 Norte 0 -- -- 13
2018-08-05 20:00:00 38.5 16 Norte 30 Norte 0 -- -- 12
2018-08-05 19:00:00 39.5 15 Norte 32 Norte 0 -- -- 11
2018-08-05 18:00:00 39.4 17 Norte 34 Norte 0 -- -- 11
2018-08-05 17:00:00 39.5 14 Norte 39 Norte 0 -- -- 11
2018-08-05 16:00:00 39.4 22 Norte 41 Norte 0 -- -- 12
2018-08-05 15:00:00 38.8 11 Norte 29 Norte 0 -- -- 12
2018-08-05 14:00:00 38.1 8 Nordeste 29 Este 0 -- -- 17
2018-08-05 13:00:00 37.1 6 Sudeste 18 Nordeste 0 -- -- 19
2018-08-05 12:00:00 34.4 5 Sudeste 11 Este 0 -- -- 24
2018-08-05 11:00:00 31.6 5 Sudeste 9 Sudeste 0 -- -- 30
2018-08-05 10:00:00 28.9 3 Este 5 Este 0 -- -- 36
2018-08-05 09:00:00 24.6 0 Calma 4 Noroeste 0 -- -- 45
2018-08-05 08:00:00 23.6 3 Sudeste 13 Sur 0 -- -- 46
2018-08-05 07:00:00 23.9 8 Sudeste 15 Sur 0 -- -- 47
2018-08-05 06:00:00 24.8 9 Sudeste 12 Sudeste 0 -- -- 44
2018-08-05 05:00:00 26.2 4 Sur 7 Sur 0 -- -- 33
2018-08-05 04:00:00 27 3 Nordeste 14 Oeste 0 -- -- 27
2018-08-05 03:00:00 27.7 6 Noroeste 15 Noroeste 0 -- -- 25
2018-08-05 02:00:00 28.3 4 Noroeste 15 Noroeste 0 -- -- 24
2018-08-05 01:00:00 29.2 9 Noroeste 18 Oeste 0 -- -- 23
2018-08-05 00:00:00 30.6 5 Noroeste 11 Noroeste 0 -- -- 22
2018-08-04 23:00:00 32.3 4 Noroeste 10 Noroeste 0 -- -- 19
2018-08-04 22:00:00 33.5 5 Noroeste 17 Norte 0 -- -- 18
2018-08-04 21:00:00 37.3 11 Norte 30 Norte 0 -- -- 16
2018-08-04 20:00:00 39.4 14 Norte 33 Noroeste 0 -- -- 15
2018-08-04 19:00:00 39.8 17 Norte 48 Noroeste 0 -- -- 15
2018-08-04 18:00:00 40.3 18 Norte 35 Norte 0 -- -- 15
2018-08-04 17:00:00 40.5 15 Norte 35 Nordeste 0 -- -- 15
2018-08-04 16:00:00 40 17 Norte 35 Norte 0 -- -- 15
2018-08-04 15:00:00 39.7 18 Nordeste 31 Norte 0 -- -- 16
2018-08-04 14:00:00 38.7 14 Nordeste 31 Nordeste 0 -- -- 17
2018-08-04 13:00:00 37.5 12 Nordeste 26 Nordeste 0 -- -- 18
2018-08-04 12:00:00 35.9 14 Nordeste 24 Norte 0 -- -- 20
2018-08-04 11:00:00 34.1 12 Norte 19 Nordeste 0 -- -- 24
2018-08-04 10:00:00 31.3 8 Norte 13 Norte 0 -- -- 28
2018-08-04 09:00:00 28 5 Oeste 10 Noroeste 0 -- -- 32
2018-08-04 08:00:00 26.7 4 Oeste 7 Oeste 0 -- -- 32
2018-08-04 07:00:00 26.5 4 Oeste 5 Oeste 0 -- -- 32
2018-08-04 06:00:00 26.8 5 Noroeste 9 Oeste 0 -- -- 32
2018-08-04 05:00:00 27.5 5 Noroeste 10 Noroeste 0 -- -- 30
2018-08-04 04:00:00 28.7 7 Noroeste 13 Norte 0 -- -- 28
2018-08-04 03:00:00 29.3 7 Noroeste 15 Noroeste 0 -- -- 26
2018-08-04 02:00:00 31.3 7 Norte 13 Norte 0 -- -- 24
2018-08-04 01:00:00 31.2 7 Norte 25 Nordeste 0 -- -- 25
2018-08-04 00:00:00 31.1 7 Noroeste 18 Noroeste 0 -- -- 25
2018-08-03 23:00:00 33.1 11 Noroeste 29 Noroeste 0 -- -- 23
2018-08-03 22:00:00 34.1 9 Noroeste 16 Noroeste 0 -- -- 21
2018-08-03 21:00:00 37.7 9 Noroeste 23 Noroeste 0 -- -- 19
2018-08-03 20:00:00 39.5 14 Norte 31 Norte 0 -- -- 17
2018-08-03 19:00:00 40.2 15 Norte 30 Norte 0 -- -- 16
2018-08-03 18:00:00 40.8 13 Norte 28 Noroeste 0 -- -- 16
2018-08-03 17:00:00 40.7 14 Norte 33 Noroeste 0 -- -- 16
2018-08-03 16:00:00 40.6 7 Noroeste 23 Noroeste 0 -- -- 16
2018-08-03 15:00:00 39.6 6 Noroeste 20 Noroeste 0 -- -- 16
2018-08-03 14:00:00 38.6 8 Oeste 18 Oeste 0 -- -- 18
2018-08-03 13:00:00 36.9 6 Oeste 14 Sur 0 -- -- 21
2018-08-03 12:00:00 34.7 5 Sur 13 Sudeste 0 -- -- 23
2018-08-03 11:00:00 31.8 7 Sudeste 13 Sudeste 0 -- -- 28
2018-08-03 10:00:00 29.4 8 Sudeste 15 Sudeste 0 -- -- 31
2018-08-03 09:00:00 26.4 3 Este 11 Sudeste 0 -- -- 36
2018-08-03 08:00:00 25.6 8 Sudeste 13 Sudeste 0 -- -- 36
2018-08-03 07:00:00 25.4 6 Sudeste 13 Sudeste 0 -- -- 35
2018-08-03 06:00:00 25.5 10 Sudeste 18 Sudeste 0 -- -- 34
2018-08-03 05:00:00 25.7 11 Sudeste 19 Sudeste 0 -- -- 34
2018-08-03 04:00:00 26.3 12 Sudeste 18 Sudeste 0 -- -- 33
2018-08-03 03:00:00 27.3 12 Sudeste 19 Sudeste 0 -- -- 31
2018-08-03 02:00:00 28.8 7 Sudeste 14 Sur 0 -- -- 29
2018-08-03 01:00:00 29.6 9 Sur 17 Sudeste 0 -- -- 28
2018-08-03 00:00:00 30.2 5 Sudeste 13 Sudoeste 0 -- -- 27
2018-08-02 23:00:00 31.9 9 Sudoeste 15 Sudoeste 0 -- -- 24
2018-08-02 22:00:00 33.9 8 Sudoeste 14 Sur 0 -- -- 21
2018-08-02 21:00:00 36.5 10 Sur 18 Sur 0 -- -- 17
2018-08-02 20:00:00 38.9 8 Sur 17 Sudeste 0 -- -- 15
2018-08-02 19:00:00 39.4 10 Sudeste 19 Sur 0 -- -- 15
2018-08-02 18:00:00 39.9 5 Sur 20 Sudeste 0 -- -- 15
2018-08-02 17:00:00 39.4 10 Sudeste 21 Este 0 -- -- 15
2018-08-02 16:00:00 39 8 Sudeste 23 Sudeste 0 -- -- 16
2018-08-02 15:00:00 38.3 11 Sur 28 Sur 0 -- -- 16
2018-08-02 14:00:00 36.7 12 Sudeste 22 Sudeste 0 -- -- 17
2018-08-02 13:00:00 34.8 13 Sudeste 27 Sudeste 0 -- -- 19
2018-08-02 12:00:00 32.9 12 Sudeste 22 Sudeste 0 -- -- 22
2018-08-02 11:00:00 30.6 10 Sudeste 15 Sudeste 0 -- -- 25
2018-08-02 10:00:00 28.1 6 Sudeste 19 Sur 0 -- -- 27
2018-08-02 09:00:00 26.5 9 Sudeste 15 Sudeste 0 -- -- 29
2018-08-02 08:00:00 24.6 7 Sudeste 13 Sudeste 0 -- -- 31
2018-08-02 07:00:00 25.5 6 Sudeste 18 Sudeste 0 -- -- 29
2018-08-02 06:00:00 25.5 10 Sudeste 15 Sudeste 0 -- -- 28
2018-08-02 05:00:00 25.4 6 Sudeste 16 Sur 0 -- -- 27
2018-08-02 04:00:00 25.6 11 Sur 19 Sur 0 -- -- 27
2018-08-02 03:00:00 26.4 8 Sudeste 18 Sudeste 0 -- -- 26
2018-08-02 02:00:00 27 7 Sudeste 19 Sudeste 0 -- -- 25
2018-08-02 01:00:00 27.9 9 Sudeste 14 Sudeste 0 -- -- 24
2018-08-02 00:00:00 29 8 Sudeste 18 Sudeste 0 -- -- 24
2018-08-01 23:00:00 30.1 9 Sudeste 19 Sur 0 -- -- 23
2018-08-01 22:00:00 32 9 Sur 19 Sur 0 -- -- 21
2018-08-01 21:00:00 34.5 10 Sur 23 Sur 0 -- -- 18
2018-08-01 20:00:00 36.8 14 Sur 24 Sur 0 -- -- 17
2018-08-01 19:00:00 37.8 15 Sur 27 Sur 0 -- -- 16
2018-08-01 18:00:00 38.7 13 Sudeste 24 Sur 0 -- -- 14
2018-08-01 17:00:00 39 9 Sur 27 Sudeste 0 -- -- 15
2018-08-01 16:00:00 38.1 12 Este 24 Este 0 -- -- 16
2018-08-01 15:00:00 36.9 8 Este 26 Este 0 -- -- 17
2018-08-01 14:00:00 35.9 9 Sudeste 23 Este 0 -- -- 19
2018-08-01 13:00:00 34.5 9 Sudeste 19 Este 0 -- -- 20
2018-08-01 12:00:00 32.8 10 Sudeste 19 Sudeste 0 -- -- 21
2018-08-01 11:00:00 30.7 7 Este 12 Este 0 -- -- 26
2018-08-01 10:00:00 26.4 6 Este 12 Este 0 -- -- 37
2018-08-01 09:00:00 21.2 4 Noroeste 8 Oeste 0 -- -- 61
2018-08-01 08:00:00 18.8 5 Oeste 8 Oeste 0 -- -- 67
2018-08-01 07:00:00 19.8 3 Oeste 6 Noroeste 0 -- -- 61
2018-08-01 06:00:00 20.6 5 Oeste 10 Oeste 0 -- -- 62
2018-08-01 05:00:00 20.8 7 Oeste 12 Oeste 0 -- -- 58
2018-08-01 04:00:00 21.7 7 Oeste 15 Noroeste 0 -- -- 52
2018-08-01 03:00:00 22.3 9 Oeste 14 Oeste 0 -- -- 41
2018-08-01 02:00:00 24.3 4 Oeste 8 Oeste 0 -- -- 33
2018-08-01 01:00:00 24.5 4 Oeste 11 Oeste 0 -- -- 34
2018-08-01 00:00:00 25.1 5 Oeste 9 Noroeste 0 -- -- 31
2018-07-31 23:00:00 26.8 6 Norte 13 Noroeste 0 -- -- 28
2018-07-31 22:00:00 29.3 8 Norte 15 Norte 0 -- -- 25
2018-07-31 21:00:00 33.4 9 Norte 16 Noroeste 0 -- -- 20
2018-07-31 20:00:00 34.8 12 Noroeste 21 Noroeste 0 -- -- 19
2018-07-31 19:00:00 34.7 7 Nordeste 22 Noroeste 0 -- -- 19
2018-07-31 18:00:00 34.9 8 Noroeste 20 Oeste 0 -- -- 20
2018-07-31 17:00:00 34.5 13 Noroeste 22 Noroeste 0 -- -- 20
2018-07-31 16:00:00 33.7 5 Norte 23 Sudoeste 0 -- -- 21
2018-07-31 15:00:00 33.2 5 Sudoeste 20 Sudoeste 0 -- -- 22
2018-07-31 14:00:00 31.8 6 Noroeste 18 Oeste 0 -- -- 26
2018-07-31 13:00:00 29.8 7 Norte 15 Noroeste 0 -- -- 31
2018-07-31 12:00:00 -- -- -- -- -- -- -- -- --
2018-07-31 11:00:00 23.7 9 Noroeste 17 Noroeste 0 -- -- 56
2018-07-31 10:00:00 20.9 12 Noroeste 19 Noroeste 0 -- -- 70
2018-07-31 09:00:00 18.5 11 Noroeste 17 Noroeste 0 -- -- 80
2018-07-31 08:00:00 16.4 5 Oeste 9 Oeste 0 -- -- 88
2018-07-31 07:00:00 15.9 7 Noroeste 17 Noroeste 0 -- -- 86
2018-07-31 06:00:00 16.8 9 Noroeste 18 Noroeste 0 -- -- 82
2018-07-31 05:00:00 17.7 12 Noroeste 20 Noroeste 0 -- -- 77
2018-07-31 04:00:00 18.8 10 Noroeste 24 Noroeste 0 -- -- 72
2018-07-31 03:00:00 19.9 14 Noroeste 28 Noroeste 0 -- -- 66
2018-07-31 02:00:00 21.5 17 Noroeste 25 Noroeste 0 -- -- 57
2018-07-31 01:00:00 22.5 18 Noroeste 25 Noroeste 0 -- -- 45
2018-07-31 00:00:00 23.1 7 Oeste 12 Norte 0 -- -- 35
2018-07-30 23:00:00 24.9 5 Noroeste 12 Norte 0 -- -- 31
2018-07-30 22:00:00 26.8 8 Noroeste 18 Noroeste 0 -- -- 28
2018-07-30 21:00:00 30.5 13 Noroeste 26 Noroeste 0 -- -- 22
2018-07-30 20:00:00 31.8 15 Noroeste 28 Noroeste 0 -- -- 21
2018-07-30 19:00:00 32 14 Noroeste 28 Noroeste 0 -- -- 21
2018-07-30 18:00:00 32.5 10 Noroeste 25 Noroeste 0 -- -- 22
2018-07-30 17:00:00 32.4 16 Noroeste 29 Noroeste 0 -- -- 21
2018-07-30 16:00:00 31.9 15 Noroeste 34 Noroeste 0 -- -- 22
2018-07-30 15:00:00 30.4 13 Noroeste 27 Noroeste 0 -- -- 25
2018-07-30 14:00:00 28.7 11 Noroeste 24 Noroeste 0 -- -- 28
2018-07-30 13:00:00 26.6 11 Oeste 20 Oeste 0 -- -- 34
2018-07-30 12:00:00 24.9 9 Noroeste 16 Oeste 0 -- -- 41
2018-07-30 11:00:00 22.6 4 Noroeste 9 Oeste 0 -- -- 48
2018-07-30 10:00:00 19.8 4 Noroeste 13 Noroeste 0 -- -- 58
2018-07-30 09:00:00 16.8 6 Noroeste 10 Noroeste 0 -- -- 68
2018-07-30 08:00:00 14.2 4 Noroeste 6 Oeste 0 -- -- 76
2018-07-30 07:00:00 14.5 3 Oeste 6 Oeste 0 -- -- 71
2018-07-30 06:00:00 15.2 5 Oeste 18 Noroeste 0 -- -- 70
2018-07-30 05:00:00 16 14 Noroeste 21 Noroeste 0 -- -- 68
2018-07-30 04:00:00 17 13 Noroeste 18 Noroeste 0 -- -- 63
2018-07-30 03:00:00 18.1 14 Noroeste 23 Noroeste 0 -- -- 57
2018-07-30 02:00:00 18.9 14 Noroeste 22 Noroeste 0 -- -- 48
2018-07-30 01:00:00 20.1 11 Noroeste 15 Noroeste 0 -- -- 40
2018-07-30 00:00:00 20.8 9 Noroeste 14 Noroeste 0 -- -- 37
2018-07-29 23:00:00 22.5 10 Noroeste 16 Noroeste 0 -- -- 33
2018-07-29 22:00:00 25.3 14 Noroeste 28 Noroeste 0 -- -- 29
2018-07-29 21:00:00 28.6 18 Noroeste 32 Noroeste 0 -- -- 25
2018-07-29 20:00:00 30.4 15 Noroeste 28 Noroeste 0 -- -- 23
2018-07-29 19:00:00 31.5 17 Oeste 32 Noroeste 0 -- -- 16
2018-07-29 18:00:00 31.5 17 Noroeste 31 Oeste 0 -- -- 14
2018-07-29 17:00:00 31.3 18 Oeste 33 Oeste 0 -- -- 14
2018-07-29 16:00:00 30.2 13 Oeste 30 Oeste 0 -- -- 16
2018-07-29 15:00:00 29.5 14 Oeste 31 Noroeste 0 -- -- 20
2018-07-29 14:00:00 27.7 12 Noroeste 26 Oeste 0 -- -- 20
2018-07-29 13:00:00 25.3 10 Oeste 18 Oeste 0 -- -- 24
2018-07-29 12:00:00 22.5 12 Noroeste 23 Oeste 0 -- -- 40
2018-07-29 11:00:00 20.3 13 Noroeste 23 Noroeste 0 -- -- 58
2018-07-29 10:00:00 18.3 11 Noroeste 17 Noroeste 0 -- -- 71
2018-07-29 09:00:00 17 10 Noroeste 15 Noroeste 0 -- -- 77
2018-07-29 08:00:00 15.6 6 Oeste 8 Sudoeste 0 -- -- 81
2018-07-29 07:00:00 15.4 3 Noroeste 14 Noroeste 0 -- -- 79
2018-07-29 06:00:00 16.3 6 Noroeste 14 Noroeste 0 -- -- 73
2018-07-29 05:00:00 17.2 6 Noroeste 9 Noroeste 0 -- -- 71
2018-07-29 04:00:00 18.2 6 Oeste 13 Noroeste 0 -- -- 67
2018-07-29 03:00:00 19.2 10 Noroeste 18 Oeste 0 -- -- 61
2018-07-29 02:00:00 20.7 12 Oeste 23 Noroeste 0 -- -- 54
2018-07-29 01:00:00 21.2 12 Noroeste 20 Oeste 0 -- -- 46
2018-07-29 00:00:00 23.1 12 Oeste 21 Oeste 0 -- -- 42
2018-07-28 23:00:00 24.7 14 Oeste 21 Oeste 0 -- -- 38
2018-07-28 22:00:00 26.6 12 Oeste 19 Oeste 0 -- -- 24
2018-07-28 21:00:00 30.4 13 Oeste 33 Noroeste 0 -- -- 17
2018-07-28 20:00:00 31.6 19 Noroeste 33 Noroeste 0 -- -- 19
2018-07-28 19:00:00 33.1 17 Noroeste 31 Noroeste 0 -- -- 18
2018-07-28 18:00:00 32.7 13 Norte 32 Noroeste 0 -- -- 15
2018-07-28 17:00:00 33.2 19 Noroeste 31 Noroeste 0 -- -- 16
2018-07-28 16:00:00 32.6 15 Noroeste 29 Noroeste 0 -- -- 19
2018-07-28 15:00:00 32 12 Oeste 27 Sudoeste 0 -- -- 17
2018-07-28 14:00:00 31.2 14 Oeste 26 Sudoeste 0 -- -- 20
2018-07-28 13:00:00 29.8 12 Oeste 25 Sudoeste 0 -- -- 23
2018-07-28 12:00:00 27.7 13 Sudoeste 23 Sudoeste 0 -- -- 28
2018-07-28 11:00:00 24.2 8 Sur 12 Sur 0 -- -- 42
2018-07-28 10:00:00 20.7 6 Sudeste 9 Sur 0 -- -- 55
2018-07-28 09:00:00 18.2 2 Sur 8 Sur 0 -- -- 65
2018-07-28 08:00:00 15.6 5 Sudeste 9 Sur 0 -- -- 75
2018-07-28 07:00:00 14.3 4 Oeste 9 Noroeste 0 -- -- 78
2018-07-28 06:00:00 14.5 6 Oeste 17 Noroeste 0 -- -- 75
2018-07-28 05:00:00 15.8 9 Noroeste 17 Noroeste 0 -- -- 71
2018-07-28 04:00:00 17.3 10 Noroeste 17 Noroeste 0 -- -- 66
2018-07-28 03:00:00 19.1 11 Noroeste 27 Noroeste 0 -- -- 61
2018-07-28 02:00:00 20.8 20 Noroeste 31 Noroeste 0 -- -- 56
2018-07-28 01:00:00 22.2 15 Noroeste 25 Noroeste 0 -- -- 47
2018-07-28 00:00:00 23 11 Noroeste 18 Noroeste 0 -- -- 37
2018-07-27 23:00:00 24.6 10 Noroeste 19 Oeste 0 -- -- 32
2018-07-27 22:00:00 27.9 13 Oeste 22 Oeste 0 -- -- 28
2018-07-27 21:00:00 31 15 Noroeste 30 Noroeste 0 -- -- 24
2018-07-27 20:00:00 32.4 18 Noroeste 35 Noroeste 0 -- -- 24
2018-07-27 19:00:00 32.9 19 Noroeste 36 Noroeste 0 -- -- 25
2018-07-27 18:00:00 33.2 21 Noroeste 36 Noroeste 0 -- -- 22
2018-07-27 17:00:00 33.3 19 Noroeste 36 Noroeste 0 -- -- 20
2018-07-27 16:00:00 33.7 19 Oeste 34 Oeste 0 -- -- 18
2018-07-27 15:00:00 33.6 9 Oeste 30 Oeste 0 -- -- 20
2018-07-27 14:00:00 32.2 13 Oeste 25 Oeste 0 -- -- 22
2018-07-27 13:00:00 31 11 Oeste 22 Noroeste 0 -- -- 27
2018-07-27 12:00:00 29.2 5 Norte 17 Oeste 0 -- -- 32
2018-07-27 11:00:00 26.6 3 Oeste 8 Noroeste 0 -- -- 37
2018-07-27 10:00:00 23.1 3 Noroeste 6 Noroeste 0 -- -- 50
2018-07-27 09:00:00 19.5 4 Noroeste 5 Noroeste 0 -- -- 62
2018-07-27 08:00:00 17.3 3 Oeste 6 Noroeste 0 -- -- 68
2018-07-27 07:00:00 17.4 3 Noroeste 9 Noroeste 0 -- -- 67
2018-07-27 06:00:00 17.9 5 Noroeste 17 Noroeste 0 -- -- 65
2018-07-27 05:00:00 18.5 10 Noroeste 19 Noroeste 0 -- -- 62
2018-07-27 04:00:00 19.1 10 Noroeste 15 Oeste 0 -- -- 58
2018-07-27 03:00:00 20.5 10 Oeste 15 Oeste 0 -- -- 51
2018-07-27 02:00:00 21.2 10 Oeste 13 Oeste 0 -- -- 43
2018-07-27 01:00:00 22.6 0 Calma 6 Noroeste 0 -- -- 41
2018-07-27 00:00:00 23.9 3 Noroeste 7 Noroeste 0 -- -- 37
2018-07-26 23:00:00 25.2 3 Noroeste 13 Noroeste 0 -- -- 36
2018-07-26 22:00:00 27.6 11 Noroeste 26 Noroeste 0 -- -- 32
2018-07-26 21:00:00 30.6 16 Noroeste 31 Noroeste 0 -- -- 30
2018-07-26 20:00:00 33.2 16 Sudoeste 24 Oeste 0 -- -- 24
2018-07-26 19:00:00 33.5 9 Sudoeste 27 Oeste 0 -- -- 23
2018-07-26 18:00:00 33.7 8 Oeste 24 Oeste 0 -- -- 21
2018-07-26 17:00:00 33.4 14 Sudoeste 31 Sudoeste 0 -- -- 20
2018-07-26 16:00:00 33 8 Sur 28 Sudoeste 0 -- -- 23
2018-07-26 15:00:00 31.5 6 Noroeste 25 Oeste 0 -- -- 27
2018-07-26 14:00:00 30.3 5 Sudoeste 16 Este 0 -- -- 29
2018-07-26 13:00:00 28.4 7 Noroeste 15 Oeste 0 -- -- 38
2018-07-26 12:00:00 26.7 8 Noroeste 14 Norte 0 -- -- 43
2018-07-26 11:00:00 23.7 4 Sudoeste 10 Oeste 0 -- -- 57
2018-07-26 10:00:00 20.2 4 Oeste 12 Noroeste 0 -- -- 73
2018-07-26 09:00:00 17.5 10 Noroeste 15 Noroeste 0 -- -- 83
2018-07-26 08:00:00 15.6 4 Noroeste 10 Oeste 0 -- -- 89
2018-07-26 07:00:00 15.5 8 Noroeste 10 Oeste 0 -- -- 85
2018-07-26 06:00:00 16.7 6 Oeste 9 Oeste 0 -- -- 81
2018-07-26 05:00:00 17.7 6 Oeste 18 Noroeste 0 -- -- 77
2018-07-26 04:00:00 18.4 12 Oeste 18 Noroeste 0 -- -- 72
2018-07-26 03:00:00 19.3 10 Oeste 17 Oeste 0 -- -- 62
2018-07-26 02:00:00 20.5 13 Noroeste 17 Oeste 0 -- -- 49
2018-07-26 01:00:00 21.8 11 Noroeste 18 Oeste 0 -- -- 40
2018-07-26 00:00:00 23.7 8 Oeste 19 Noroeste 0 -- -- 35
2018-07-25 23:00:00 25.5 13 Oeste 19 Noroeste 0 -- -- 31
2018-07-25 22:00:00 27.9 10 Noroeste 21 Sudoeste 0 -- -- 29
2018-07-25 21:00:00 31.9 16 Sudoeste 22 Sudoeste 0 -- -- 24
2018-07-25 20:00:00 33.5 13 Sudoeste 25 Sudoeste 0 -- -- 21
2018-07-25 19:00:00 33.6 14 Oeste 27 Sudoeste 0 -- -- 23
2018-07-25 18:00:00 33.8 9 Sudoeste 26 Oeste 0 -- -- 22
2018-07-25 17:00:00 33.3 13 Oeste 26 Sudoeste 0 -- -- 21
2018-07-25 16:00:00 32.7 14 Sudoeste 26 Oeste 0 -- -- 18
2018-07-25 15:00:00 32.2 8 Sur 23 Oeste 0 -- -- 21
2018-07-25 14:00:00 31.3 9 Sudoeste 19 Sudoeste 0 -- -- 24
2018-07-25 13:00:00 30 9 Sudoeste 20 Sudoeste 0 -- -- 27
2018-07-25 12:00:00 27.4 9 Sudoeste 14 Oeste 0 -- -- 34
2018-07-25 11:00:00 25.2 4 Sur 11 Sudeste 0 -- -- 46
2018-07-25 10:00:00 22.2 2 Norte 6 Oeste 0 -- -- 58
2018-07-25 09:00:00 18.3 6 Noroeste 9 Oeste 0 -- -- 73
2018-07-25 08:00:00 16.1 8 Oeste 10 Oeste 0 -- -- 80
2018-07-25 07:00:00 15.6 6 Oeste 13 Oeste 0 -- -- 79
2018-07-25 06:00:00 16.5 7 Oeste 16 Oeste 0 -- -- 75
2018-07-25 05:00:00 16.6 11 Oeste 16 Oeste 0 -- -- 73
2018-07-25 04:00:00 17.3 8 Noroeste 15 Noroeste 0 -- -- 65
2018-07-25 03:00:00 18.5 11 Noroeste 17 Noroeste 0 -- -- 60
2018-07-25 02:00:00 20 10 Noroeste 17 Oeste 0 -- -- 52
2018-07-25 01:00:00 20.9 5 Noroeste 8 Noroeste 0 -- -- 45
2018-07-25 00:00:00 22.2 2 Noroeste 7 Oeste 0 -- -- 41
2018-07-24 23:00:00 24.2 6 Noroeste 21 Noroeste 0 -- -- 38
2018-07-24 22:00:00 27.2 10 Oeste 25 Noroeste 0 -- -- 31
2018-07-24 21:00:00 30.9 13 Noroeste 27 Oeste 0 -- -- 26
2018-07-24 20:00:00 32.5 17 Sudoeste 32 Oeste 0 -- -- 28
2018-07-24 19:00:00 33.5 14 Oeste 31 Sudoeste 0 -- -- 26
2018-07-24 18:00:00 33.3 10 Sudoeste 29 Oeste 0 -- -- 26
2018-07-24 17:00:00 33.5 16 Sudoeste 30 Sudoeste 0 -- -- 23
2018-07-24 16:00:00 32.6 12 Sudoeste 27 Sur 0 -- -- 20
2018-07-24 15:00:00 31.8 10 Sudoeste 21 Sudoeste 0 -- -- 24
2018-07-24 14:00:00 30.4 10 Sudoeste 19 Oeste 0 -- -- 30
2018-07-24 13:00:00 28.6 5 Sudoeste 16 Oeste 0 -- -- 33
2018-07-24 12:00:00 26.4 7 Sur 14 Sur 0 -- -- 41
2018-07-24 11:00:00 24.3 5 Sur 10 Sur 0 -- -- 47
2018-07-24 10:00:00 21 3 Noroeste 10 Noroeste 0 -- -- 59
2018-07-24 09:00:00 18.1 6 Noroeste 9 Oeste 0 -- -- 67
2018-07-24 08:00:00 16.1 6 Oeste 12 Oeste 0 -- -- 73
2018-07-24 07:00:00 15.7 6 Oeste 12 Noroeste 0 -- -- 72
2018-07-24 06:00:00 16.4 6 Oeste 12 Oeste 0 -- -- 68
2018-07-24 05:00:00 17.1 9 Oeste 15 Oeste 0 -- -- 64
2018-07-24 04:00:00 18.2 7 Oeste 10 Oeste 0 -- -- 60
2018-07-24 03:00:00 19.4 8 Oeste 17 Oeste 0 -- -- 56
2018-07-24 02:00:00 21.2 12 Oeste 21 Oeste 0 -- -- 48
2018-07-24 01:00:00 23.7 14 Sudoeste 23 Sudoeste 0 -- -- 44
2018-07-24 00:00:00 24.6 13 Sudoeste 19 Sudoeste 0 -- -- 36
2018-07-23 23:00:00 26 15 Sudoeste 20 Sudoeste 0 -- -- 32
2018-07-23 22:00:00 28 15 Sudoeste 24 Sudoeste 0 -- -- 29
2018-07-23 21:00:00 31.3 12 Sudoeste 30 Sudoeste 0 -- -- 29
2018-07-23 20:00:00 32.6 15 Sudoeste 30 Sudoeste 0 -- -- 26
2018-07-23 19:00:00 33.2 17 Sudoeste 39 Sur 0 -- -- 20
2018-07-23 18:00:00 33.4 17 Sudoeste 33 Oeste 0 -- -- 22
2018-07-23 17:00:00 33.5 17 Sudoeste 29 Sudoeste 0 -- -- 20
2018-07-23 16:00:00 33.6 15 Sudoeste 30 Oeste 0 -- -- 20
2018-07-23 15:00:00 32.6 8 Sur 27 Sudoeste 0 -- -- 26
2018-07-23 14:00:00 31.5 15 Sudoeste 28 Sudoeste 0 -- -- 26
2018-07-23 13:00:00 29.8 12 Sur 26 Sur 0 -- -- 32
2018-07-23 12:00:00 28.2 8 Sudeste 23 Sudeste 0 -- -- 35
2018-07-23 11:00:00 26.6 6 Sur 14 Sur 0 -- -- 34
2018-07-23 10:00:00 23.9 6 Sudeste 13 Sudeste 0 -- -- 39
2018-07-23 09:00:00 20.9 8 Sudeste 15 Sudeste 0 -- -- 49
2018-07-23 08:00:00 19.5 12 Sudeste 18 Sudeste 0 -- -- 52
2018-07-23 07:00:00 19.7 6 Sudeste 12 Sudeste 0 -- -- 53
2018-07-23 06:00:00 21 4 Sudeste 6 Sudeste 0 -- -- 51
2018-07-23 05:00:00 20.1 0 Calma 5 Noroeste 0 -- -- 53
2018-07-23 04:00:00 21.4 2 Oeste 4 Oeste 0 -- -- 49
2018-07-23 03:00:00 22.6 3 Sudoeste 12 Sur 0 -- -- 47
2018-07-23 02:00:00 23.7 9 Sur 14 Sudoeste 0 -- -- 44
2018-07-23 01:00:00 24.5 10 Sudoeste 14 Sudoeste 0 -- -- 43
2018-07-23 00:00:00 24 5 Oeste 17 Sudoeste 0 -- -- 41
2018-07-22 23:00:00 27.1 11 Sudoeste 24 Sudoeste 0 -- -- 36
2018-07-22 22:00:00 29 13 Sudoeste 21 Sudoeste 0 -- -- 31
2018-07-22 21:00:00 31.8 15 Sudoeste 26 Sudoeste 0 -- -- 26
2018-07-22 20:00:00 33.2 16 Sudoeste 33 Sudoeste 0 -- -- 24
2018-07-22 19:00:00 33.8 15 Oeste 24 Sudoeste 0 -- -- 23
2018-07-22 18:00:00 34 12 Sudoeste 31 Sudoeste 0 -- -- 20
2018-07-22 17:00:00 33.6 13 Sudoeste 28 Sudoeste 0 -- -- 21
2018-07-22 16:00:00 33.6 14 Sudoeste 23 Oeste 0 -- -- 20
2018-07-22 15:00:00 32.5 8 Sudoeste 27 Oeste 0 -- -- 19
2018-07-22 14:00:00 31.3 9 Oeste 24 Sudoeste 0 -- -- 20
2018-07-22 13:00:00 30.2 13 Sudoeste 23 Sudoeste 0 -- -- 24
2018-07-22 12:00:00 28.1 11 Sudoeste 18 Sudoeste 0 -- -- 31
2018-07-22 11:00:00 25.1 6 Norte 10 Norte 0 -- -- 42
2018-07-22 10:00:00 22.4 3 Norte 12 Noroeste 0 -- -- 49
2018-07-22 09:00:00 18.7 9 Noroeste 13 Noroeste 0 -- -- 60
2018-07-22 08:00:00 15.8 7 Oeste 9 Noroeste 0 -- -- 67
2018-07-22 07:00:00 16.4 3 Noroeste 5 Noroeste 0 -- -- 64
2018-07-22 06:00:00 18 0 Calma 15 Oeste 0 -- -- 61
2018-07-22 05:00:00 18.6 7 Oeste 18 Noroeste 0 -- -- 59
2018-07-22 04:00:00 18.8 11 Noroeste 17 Oeste 0 -- -- 58
2018-07-22 03:00:00 19.5 12 Oeste 17 Noroeste 0 -- -- 55
2018-07-22 02:00:00 21 12 Noroeste 22 Noroeste 0 -- -- 50
2018-07-22 01:00:00 22.2 9 Noroeste 19 Noroeste 0 -- -- 37
2018-07-22 00:00:00 24.3 6 Noroeste 13 Oeste 0 -- -- 34
2018-07-21 23:00:00 25.8 9 Oeste 21 Sudoeste 0 -- -- 31
2018-07-21 22:00:00 28.3 9 Sudoeste 17 Noroeste 0 -- -- 28
2018-07-21 21:00:00 31 12 Noroeste 27 Noroeste 0 -- -- 23
2018-07-21 20:00:00 32 5 Nordeste 27 Noroeste 0 -- -- 22
2018-07-21 19:00:00 32.7 11 Noroeste 30 Noroeste 0 -- -- 22
2018-07-21 18:00:00 32.5 13 Oeste 27 Oeste 0 -- -- 23
2018-07-21 17:00:00 32.4 11 Sudoeste 24 Oeste 0 -- -- 23
2018-07-21 16:00:00 31.8 10 Oeste 22 Oeste 0 -- -- 23
2018-07-21 15:00:00 30.4 9 Nordeste 18 Nordeste 0 -- -- 27
2018-07-21 14:00:00 29.3 7 Este 18 Oeste 0 -- -- 31
2018-07-21 13:00:00 27.8 6 Nordeste 14 Nordeste 0 -- -- 38
2018-07-21 12:00:00 26.3 5 Sudeste 10 Sudeste 0 -- -- 45
2018-07-21 11:00:00 23.2 3 Noroeste 12 Noroeste 0 -- -- 54
2018-07-21 10:00:00 20.1 6 Noroeste 17 Noroeste 0 -- -- 63
2018-07-21 09:00:00 17.3 13 Noroeste 17 Oeste 0 -- -- 73
2018-07-21 08:00:00 15 5 Noroeste 13 Noroeste 0 -- -- 77
2018-07-21 07:00:00 14.7 10 Oeste 16 Oeste 0 -- -- 77
2018-07-21 06:00:00 15.1 8 Noroeste 14 Oeste 0 -- -- 75
2018-07-21 05:00:00 16.4 10 Oeste 18 Oeste 0 -- -- 69
2018-07-21 04:00:00 17.2 12 Noroeste 23 Noroeste 0 -- -- 66
2018-07-21 03:00:00 18.3 13 Noroeste 26 Noroeste 0 -- -- 60
2018-07-21 02:00:00 19.8 15 Noroeste 30 Noroeste 0 -- -- 55
2018-07-21 01:00:00 21.2 15 Noroeste 26 Noroeste 0 -- -- 49
2018-07-21 00:00:00 23 19 Noroeste 28 Noroeste 0 -- -- 43
2018-07-20 23:00:00 23.9 18 Noroeste 26 Noroeste 0 -- -- 38
2018-07-20 22:00:00 26 14 Noroeste 24 Noroeste 0 -- -- 34
2018-07-20 21:00:00 28.5 19 Noroeste 32 Noroeste 0 -- -- 29
2018-07-20 20:00:00 29.6 20 Noroeste 32 Noroeste 0 -- -- 29
2018-07-20 19:00:00 30.3 18 Noroeste 30 Oeste 0 -- -- 26
2018-07-20 18:00:00 30.9 24 Noroeste 44 Noroeste 0 -- -- 26
2018-07-20 17:00:00 30.7 19 Noroeste 37 Oeste 0 -- -- 28
2018-07-20 16:00:00 30.3 19 Noroeste 35 Noroeste 0 -- -- 30
2018-07-20 15:00:00 29.2 17 Noroeste 31 Noroeste 0 -- -- 32
2018-07-20 14:00:00 27.6 14 Oeste 25 Noroeste 0 -- -- 37
2018-07-20 13:00:00 25.4 10 Noroeste 24 Noroeste 0 -- -- 42
2018-07-20 12:00:00 23 14 Noroeste 26 Noroeste 0 -- -- 52
2018-07-20 11:00:00 20.6 15 Noroeste 22 Noroeste 0 -- -- 64
2018-07-20 10:00:00 18 17 Noroeste 25 Noroeste 0 -- -- 76
2018-07-20 09:00:00 16.7 15 Noroeste 22 Noroeste 0 -- -- 77
2018-07-20 08:00:00 14.8 7 Oeste 15 Oeste 0 -- -- 80
2018-07-20 07:00:00 14.5 7 Noroeste 9 Noroeste 0 -- -- 80
2018-07-20 06:00:00 15.4 7 Noroeste 13 Noroeste 0 -- -- 75
2018-07-20 05:00:00 15.9 10 Oeste 13 Oeste 0 -- -- 71
2018-07-20 04:00:00 16.9 6 Oeste 13 Oeste 0 -- -- 65
2018-07-20 03:00:00 17.6 8 Noroeste 16 Noroeste 0 -- -- 59
2018-07-20 02:00:00 18.5 9 Noroeste 14 Noroeste 0 -- -- 52
2018-07-20 01:00:00 20.3 8 Noroeste 13 Noroeste 0 -- -- 42
2018-07-20 00:00:00 21.4 5 Noroeste 14 Oeste 0 -- -- 38